sensor_id;sensor_type;location;lat;lon;timestamp;temperature;humidity
19586;DHT22;9939;49.246;9.106;2023-10-09T00:01:26;12.70;99.90
19586;DHT22;9939;49.246;9.106;2023-10-09T00:03:53;12.70;99.90
19586;DHT22;9939;49.246;9.106;2023-10-09T00:06:21;12.60;99.90
19586;DHT22;9939;49.246;9.106;2023-10-09T00:08:57;12.50;99.90
19586;DHT22;9939;49.246;9.106;2023-10-09T00:11:24;12.40;99.90
19586;DHT22;9939;49.246;9.106;2023-10-09T00:13:56;12.50;99.90
19586;DHT22;9939;49.246;9.106;2023-10-09T00:16:27;12.60;99.90
19586;DHT22;9939;49.246;9.106;2023-10-09T00:19:05;12.60;99.90
19586;DHT22;9939;49.246;9.106;2023-10-09T00:21:47;12.50;99.90
19586;DHT22;9939;49.246;9.106;2023-10-09T00:24:14;12.60;99.90
19586;DHT22;9939;49.246;9.106;2023-10-09T00:26:51;12.60;99.90
19586;DHT22;9939;49.246;9.106;2023-10-09T00:29:19;12.50;99.90
19586;DHT22;9939;49.246;9.106;2023-10-09T00:31:52;12.50;99.90
19586;DHT22;9939;49.246;9.106;2023-10-09T00:34:30;12.50;99.90
19586;DHT22;9939;49.246;9.106;2023-10-09T00:37:06;12.50;99.90
19586;DHT22;9939;49.246;9.106;2023-10-09T00:39:37;12.50;99.90
19586;DHT22;9939;49.246;9.106;2023-10-09T00:42:12;12.50;99.90
19586;DHT22;9939;49.246;9.106;2023-10-09T00:44:41;12.40;99.90
19586;DHT22;9939;49.246;9.106;2023-10-09T00:47:09;12.50;99.90
19586;DHT22;9939;49.246;9.106;2023-10-09T00:49:49;12.50;99.90
19586;DHT22;9939;49.246;9.106;2023-10-09T00:52:16;12.50;99.90
19586;DHT22;9939;49.246;9.106;2023-10-09T00:54:56;12.50;99.90
19586;DHT22;9939;49.246;9.106;2023-10-09T00:57:28;12.40;99.90
19586;DHT22;9939;49.246;9.106;2023-10-09T00:59:55;12.40;99.90
19586;DHT22;9939;49.246;9.106;2023-10-09T01:02:26;12.50;99.90
19586;DHT22;9939;49.246;9.106;2023-10-09T01:05:03;12.50;99.90
19586;DHT22;9939;49.246;9.106;2023-10-09T01:07:38;12.50;99.90
19586;DHT22;9939;49.246;9.106;2023-10-09T01:10:11;12.50;99.90
19586;DHT22;9939;49.246;9.106;2023-10-09T01:12:38;12.50;99.90
19586;DHT22;9939;49.246;9.106;2023-10-09T01:15:10;12.50;99.90
19586;DHT22;9939;49.246;9.106;2023-10-09T01:17:57;12.60;99.90
19586;DHT22;9939;49.246;9.106;2023-10-09T01:20:25;12.60;99.90
19586;DHT22;9939;49.246;9.106;2023-10-09T01:23:00;12.70;99.90
19586;DHT22;9939;49.246;9.106;2023-10-09T01:25:27;12.70;99.90
19586;DHT22;9939;49.246;9.106;2023-10-09T01:28:08;12.80;99.90
19586;DHT22;9939;49.246;9.106;2023-10-09T01:30:35;12.80;99.90
19586;DHT22;9939;49.246;9.106;2023-10-09T01:33:08;12.80;99.90
19586;DHT22;9939;49.246;9.106;2023-10-09T01:35:51;12.80;99.90
19586;DHT22;9939;49.246;9.106;2023-10-09T01:38:27;12.70;99.90
19586;DHT22;9939;49.246;9.106;2023-10-09T01:41:11;12.80;99.90
19586;DHT22;9939;49.246;9.106;2023-10-09T01:43:42;12.80;99.90
19586;DHT22;9939;49.246;9.106;2023-10-09T01:46:11;12.90;99.90
19586;DHT22;9939;49.246;9.106;2023-10-09T01:48:38;12.80;99.90
19586;DHT22;9939;49.246;9.106;2023-10-09T01:51:13;12.90;99.90
19586;DHT22;9939;49.246;9.106;2023-10-09T01:53:39;12.90;99.90
19586;DHT22;9939;49.246;9.106;2023-10-09T01:56:09;13.10;99.90
19586;DHT22;9939;49.246;9.106;2023-10-09T01:58:36;13.10;99.90
19586;DHT22;9939;49.246;9.106;2023-10-09T02:01:03;13.00;99.90
19586;DHT22;9939;49.246;9.106;2023-10-09T02:03:33;13.00;99.90
19586;DHT22;9939;49.246;9.106;2023-10-09T02:06:09;13.00;99.90
19586;DHT22;9939;49.246;9.106;2023-10-09T02:08:53;12.90;99.90
19586;DHT22;9939;49.246;9.106;2023-10-09T02:11:20;12.90;99.90
19586;DHT22;9939;49.246;9.106;2023-10-09T02:14:03;12.90;99.90
19586;DHT22;9939;49.246;9.106;2023-10-09T02:16:42;12.80;99.90
19586;DHT22;9939;49.246;9.106;2023-10-09T02:19:08;12.90;99.90
19586;DHT22;9939;49.246;9.106;2023-10-09T02:21:55;12.90;99.90
19586;DHT22;9939;49.246;9.106;2023-10-09T02:24:24;13.00;99.90
19586;DHT22;9939;49.246;9.106;2023-10-09T02:26:55;13.10;99.90
19586;DHT22;9939;49.246;9.106;2023-10-09T02:29:22;13.10;99.90
19586;DHT22;9939;49.246;9.106;2023-10-09T02:31:51;13.00;99.90
19586;DHT22;9939;49.246;9.106;2023-10-09T02:34:28;13.20;99.90
19586;DHT22;9939;49.246;9.106;2023-10-09T02:36:56;13.10;99.90
19586;DHT22;9939;49.246;9.106;2023-10-09T02:39:32;13.10;99.90
19586;DHT22;9939;49.246;9.106;2023-10-09T02:42:10;12.90;99.90
19586;DHT22;9939;49.246;9.106;2023-10-09T02:44:40;12.90;99.90
19586;DHT22;9939;49.246;9.106;2023-10-09T02:47:13;12.90;99.90
19586;DHT22;9939;49.246;9.106;2023-10-09T02:49:47;13.00;99.90
19586;DHT22;9939;49.246;9.106;2023-10-09T02:52:18;13.00;99.90
19586;DHT22;9939;49.246;9.106;2023-10-09T02:54:46;12.90;99.90
19586;DHT22;9939;49.246;9.106;2023-10-09T02:57:19;13.10;99.90
19586;DHT22;9939;49.246;9.106;2023-10-09T02:59:50;13.10;99.90
19586;DHT22;9939;49.246;9.106;2023-10-09T03:02:18;13.00;99.90
19586;DHT22;9939;49.246;9.106;2023-10-09T03:04:45;12.90;99.90
19586;DHT22;9939;49.246;9.106;2023-10-09T03:07:12;13.00;99.90
19586;DHT22;9939;49.246;9.106;2023-10-09T03:09:41;12.90;99.90
19586;DHT22;9939;49.246;9.106;2023-10-09T03:12:08;12.90;99.90
19586;DHT22;9939;49.246;9.106;2023-10-09T03:14:39;12.70;99.90
19586;DHT22;9939;49.246;9.106;2023-10-09T03:17:07;12.70;99.90
19586;DHT22;9939;49.246;9.106;2023-10-09T03:19:38;12.80;99.90
19586;DHT22;9939;49.246;9.106;2023-10-09T03:22:06;12.80;99.90
19586;DHT22;9939;49.246;9.106;2023-10-09T03:24:40;12.70;99.90
19586;DHT22;9939;49.246;9.106;2023-10-09T03:27:16;12.70;99.90
19586;DHT22;9939;49.246;9.106;2023-10-09T03:29:43;12.60;99.90
19586;DHT22;9939;49.246;9.106;2023-10-09T03:32:16;12.70;99.90
19586;DHT22;9939;49.246;9.106;2023-10-09T03:34:42;12.70;99.90
19586;DHT22;9939;49.246;9.106;2023-10-09T03:37:10;12.60;99.90
19586;DHT22;9939;49.246;9.106;2023-10-09T03:39:48;12.50;99.90
19586;DHT22;9939;49.246;9.106;2023-10-09T03:42:18;12.60;99.90
19586;DHT22;9939;49.246;9.106;2023-10-09T03:44:49;12.60;99.90
19586;DHT22;9939;49.246;9.106;2023-10-09T03:47:20;12.50;99.90
19586;DHT22;9939;49.246;9.106;2023-10-09T03:49:49;12.60;99.90
19586;DHT22;9939;49.246;9.106;2023-10-09T03:52:18;12.60;99.90
19586;DHT22;9939;49.246;9.106;2023-10-09T03:54:45;12.50;99.90
19586;DHT22;9939;49.246;9.106;2023-10-09T03:57:16;12.40;99.90
19586;DHT22;9939;49.246;9.106;2023-10-09T03:59:46;12.40;99.90
19586;DHT22;9939;49.246;9.106;2023-10-09T04:02:18;12.50;99.90
19586;DHT22;9939;49.246;9.106;2023-10-09T04:04:45;12.40;99.90
19586;DHT22;9939;49.246;9.106;2023-10-09T04:07:14;12.30;99.90
19586;DHT22;9939;49.246;9.106;2023-10-09T04:09:43;12.20;99.90
19586;DHT22;9939;49.246;9.106;2023-10-09T04:12:14;12.20;99.90
19586;DHT22;9939;49.246;9.106;2023-10-09T04:14:48;12.20;99.90
19586;DHT22;9939;49.246;9.106;2023-10-09T04:17:40;12.10;99.90
19586;DHT22;9939;49.246;9.106;2023-10-09T04:20:10;12.20;99.90
19586;DHT22;9939;49.246;9.106;2023-10-09T04:22:45;12.00;99.90
19586;DHT22;9939;49.246;9.106;2023-10-09T04:25:19;12.10;99.90
19586;DHT22;9939;49.246;9.106;2023-10-09T04:27:55;12.10;99.90
19586;DHT22;9939;49.246;9.106;2023-10-09T04:30:41;12.10;99.90
19586;DHT22;9939;49.246;9.106;2023-10-09T04:33:10;12.10;99.90
19586;DHT22;9939;49.246;9.106;2023-10-09T04:36:02;12.10;99.90
19586;DHT22;9939;49.246;9.106;2023-10-09T04:38:48;12.10;99.90
19586;DHT22;9939;49.246;9.106;2023-10-09T04:41:31;12.60;99.90
19586;DHT22;9939;49.246;9.106;2023-10-09T04:44:18;12.80;99.90
19586;DHT22;9939;49.246;9.106;2023-10-09T04:46:47;12.80;99.90
19586;DHT22;9939;49.246;9.106;2023-10-09T04:49:33;12.90;99.90
19586;DHT22;9939;49.246;9.106;2023-10-09T04:52:15;12.70;99.90
19586;DHT22;9939;49.246;9.106;2023-10-09T04:55:05;12.60;99.90
19586;DHT22;9939;49.246;9.106;2023-10-09T04:57:42;12.50;99.90
19586;DHT22;9939;49.246;9.106;2023-10-09T05:00:09;12.50;99.90
19586;DHT22;9939;49.246;9.106;2023-10-09T05:02:57;12.50;99.90
19586;DHT22;9939;49.246;9.106;2023-10-09T05:05:29;12.50;99.90
19586;DHT22;9939;49.246;9.106;2023-10-09T05:08:16;12.50;99.90
19586;DHT22;9939;49.246;9.106;2023-10-09T05:10:56;12.50;99.90
19586;DHT22;9939;49.246;9.106;2023-10-09T05:13:30;12.50;99.90
19586;DHT22;9939;49.246;9.106;2023-10-09T05:16:15;12.70;99.90
19586;DHT22;9939;49.246;9.106;2023-10-09T05:18:43;12.70;99.90
19586;DHT22;9939;49.246;9.106;2023-10-09T05:21:12;12.50;99.90
19586;DHT22;9939;49.246;9.106;2023-10-09T05:23:57;12.50;99.90
19586;DHT22;9939;49.246;9.106;2023-10-09T05:26:41;12.60;99.90
19586;DHT22;9939;49.246;9.106;2023-10-09T05:29:12;12.70;99.90
19586;DHT22;9939;49.246;9.106;2023-10-09T05:31:57;12.80;99.90
19586;DHT22;9939;49.246;9.106;2023-10-09T05:34:30;12.80;99.90
19586;DHT22;9939;49.246;9.106;2023-10-09T05:37:04;12.70;99.90
19586;DHT22;9939;49.246;9.106;2023-10-09T05:39:49;12.70;99.90
19586;DHT22;9939;49.246;9.106;2023-10-09T05:42:29;12.60;99.90
19586;DHT22;9939;49.246;9.106;2023-10-09T05:45:09;12.60;99.90
19586;DHT22;9939;49.246;9.106;2023-10-09T05:47:49;12.70;99.90
19586;DHT22;9939;49.246;9.106;2023-10-09T05:50:20;12.80;99.90
19586;DHT22;9939;49.246;9.106;2023-10-09T05:52:50;12.80;99.90
19586;DHT22;9939;49.246;9.106;2023-10-09T05:55:17;12.80;99.90
19586;DHT22;9939;49.246;9.106;2023-10-09T05:58:03;12.70;99.90
19586;DHT22;9939;49.246;9.106;2023-10-09T06:00:30;12.70;99.90
19586;DHT22;9939;49.246;9.106;2023-10-09T06:03:15;12.90;99.90
19586;DHT22;9939;49.246;9.106;2023-10-09T06:05:52;12.90;99.90
19586;DHT22;9939;49.246;9.106;2023-10-09T06:08:25;13.10;99.90
19586;DHT22;9939;49.246;9.106;2023-10-09T06:11:08;13.00;99.90
19586;DHT22;9939;49.246;9.106;2023-10-09T06:13:53;13.10;99.90
19586;DHT22;9939;49.246;9.106;2023-10-09T06:16:36;13.20;99.90
19586;DHT22;9939;49.246;9.106;2023-10-09T06:19:06;13.10;99.90
19586;DHT22;9939;49.246;9.106;2023-10-09T06:21:39;13.30;99.90
19586;DHT22;9939;49.246;9.106;2023-10-09T06:24:26;13.30;99.90
19586;DHT22;9939;49.246;9.106;2023-10-09T06:27:00;13.20;99.90
19586;DHT22;9939;49.246;9.106;2023-10-09T06:29:30;13.30;99.90
19586;DHT22;9939;49.246;9.106;2023-10-09T06:32:03;13.20;99.90
19586;DHT22;9939;49.246;9.106;2023-10-09T06:35:07;13.20;99.90
19586;DHT22;9939;49.246;9.106;2023-10-09T06:37:51;13.40;99.90
19586;DHT22;9939;49.246;9.106;2023-10-09T06:40:37;13.60;99.90
19586;DHT22;9939;49.246;9.106;2023-10-09T06:43:19;13.70;99.90
19586;DHT22;9939;49.246;9.106;2023-10-09T06:45:49;13.70;99.90
19586;DHT22;9939;49.246;9.106;2023-10-09T06:48:25;13.60;99.90
19586;DHT22;9939;49.246;9.106;2023-10-09T06:51:04;13.70;99.90
19586;DHT22;9939;49.246;9.106;2023-10-09T06:53:42;13.90;99.90
19586;DHT22;9939;49.246;9.106;2023-10-09T06:56:22;14.00;99.90
19586;DHT22;9939;49.246;9.106;2023-10-09T06:58:58;14.00;99.90
19586;DHT22;9939;49.246;9.106;2023-10-09T07:01:25;14.10;99.90
19586;DHT22;9939;49.246;9.106;2023-10-09T07:03:55;14.20;99.90
19586;DHT22;9939;49.246;9.106;2023-10-09T07:06:37;14.30;99.90
19586;DHT22;9939;49.246;9.106;2023-10-09T07:09:04;14.40;99.90
19586;DHT22;9939;49.246;9.106;2023-10-09T07:11:37;14.50;99.90
19586;DHT22;9939;49.246;9.106;2023-10-09T07:14:18;14.70;99.90
19586;DHT22;9939;49.246;9.106;2023-10-09T07:17:00;14.80;99.90
19586;DHT22;9939;49.246;9.106;2023-10-09T07:19:27;15.00;99.90
19586;DHT22;9939;49.246;9.106;2023-10-09T07:22:01;15.00;99.90
19586;DHT22;9939;49.246;9.106;2023-10-09T07:24:30;15.00;99.90
19586;DHT22;9939;49.246;9.106;2023-10-09T07:27:10;15.00;99.90
19586;DHT22;9939;49.246;9.106;2023-10-09T07:29:39;15.10;99.90
19586;DHT22;9939;49.246;9.106;2023-10-09T07:32:18;15.20;99.90
19586;DHT22;9939;49.246;9.106;2023-10-09T07:34:48;14.90;99.90
19586;DHT22;9939;49.246;9.106;2023-10-09T07:37:26;15.10;99.90
19586;DHT22;9939;49.246;9.106;2023-10-09T07:39:57;15.20;99.90
19586;DHT22;9939;49.246;9.106;2023-10-09T07:42:27;15.50;99.90
19586;DHT22;9939;49.246;9.106;2023-10-09T07:45:10;15.80;99.90
19586;DHT22;9939;49.246;9.106;2023-10-09T07:47:46;15.90;99.90
19586;DHT22;9939;49.246;9.106;2023-10-09T07:50:28;16.20;99.90
19586;DHT22;9939;49.246;9.106;2023-10-09T07:53:16;16.10;99.90
19586;DHT22;9939;49.246;9.106;2023-10-09T07:55:52;16.10;99.90
19586;DHT22;9939;49.246;9.106;2023-10-09T07:58:25;15.90;99.90
19586;DHT22;9939;49.246;9.106;2023-10-09T08:00:52;15.80;99.90
19586;DHT22;9939;49.246;9.106;2023-10-09T08:03:35;15.70;99.90
19586;DHT22;9939;49.246;9.106;2023-10-09T08:06:02;16.00;99.90
19586;DHT22;9939;49.246;9.106;2023-10-09T08:08:56;15.90;99.90
19586;DHT22;9939;49.246;9.106;2023-10-09T08:11:29;16.00;99.90
19586;DHT22;9939;49.246;9.106;2023-10-09T08:14:25;16.00;99.90
19586;DHT22;9939;49.246;9.106;2023-10-09T08:17:01;16.20;99.90
19586;DHT22;9939;49.246;9.106;2023-10-09T08:19:48;16.50;99.90
19586;DHT22;9939;49.246;9.106;2023-10-09T08:22:25;16.80;99.90
19586;DHT22;9939;49.246;9.106;2023-10-09T08:24:52;17.00;99.90
19586;DHT22;9939;49.246;9.106;2023-10-09T08:27:23;17.30;99.90
19586;DHT22;9939;49.246;9.106;2023-10-09T08:30:04;17.60;99.90
19586;DHT22;9939;49.246;9.106;2023-10-09T08:32:46;17.70;99.90
19586;DHT22;9939;49.246;9.106;2023-10-09T08:35:36;17.90;99.90
19586;DHT22;9939;49.246;9.106;2023-10-09T08:38:16;18.10;99.90
19586;DHT22;9939;49.246;9.106;2023-10-09T08:40:50;18.20;99.90
19586;DHT22;9939;49.246;9.106;2023-10-09T08:43:21;18.10;99.90
19586;DHT22;9939;49.246;9.106;2023-10-09T08:45:55;18.30;99.90
19586;DHT22;9939;49.246;9.106;2023-10-09T08:48:28;18.10;99.90
19586;DHT22;9939;49.246;9.106;2023-10-09T08:50:55;18.30;99.90
19586;DHT22;9939;49.246;9.106;2023-10-09T08:53:23;18.50;99.90
19586;DHT22;9939;49.246;9.106;2023-10-09T08:55:58;18.70;99.90
19586;DHT22;9939;49.246;9.106;2023-10-09T08:58:25;19.00;99.90
19586;DHT22;9939;49.246;9.106;2023-10-09T09:00:53;19.20;99.90
19586;DHT22;9939;49.246;9.106;2023-10-09T09:03:22;19.30;99.90
19586;DHT22;9939;49.246;9.106;2023-10-09T09:05:58;19.50;99.90
19586;DHT22;9939;49.246;9.106;2023-10-09T09:08:29;19.80;99.90
19586;DHT22;9939;49.246;9.106;2023-10-09T09:11:17;20.00;99.90
19586;DHT22;9939;49.246;9.106;2023-10-09T09:16:20;20.10;99.90
19586;DHT22;9939;49.246;9.106;2023-10-09T09:18:51;20.30;99.90
19586;DHT22;9939;49.246;9.106;2023-10-09T09:21:18;20.60;99.90
19586;DHT22;9939;49.246;9.106;2023-10-09T09:23:53;20.60;99.90
19586;DHT22;9939;49.246;9.106;2023-10-09T09:26:31;20.90;99.90
19586;DHT22;9939;49.246;9.106;2023-10-09T09:29:04;20.80;99.90
19586;DHT22;9939;49.246;9.106;2023-10-09T09:31:34;21.00;99.90
19586;DHT22;9939;49.246;9.106;2023-10-09T09:34:08;20.90;99.90
19586;DHT22;9939;49.246;9.106;2023-10-09T09:36:51;20.80;99.90
19586;DHT22;9939;49.246;9.106;2023-10-09T09:39:21;20.80;99.90
19586;DHT22;9939;49.246;9.106;2023-10-09T09:41:59;20.90;99.90
19586;DHT22;9939;49.246;9.106;2023-10-09T09:44:34;20.90;99.90
19586;DHT22;9939;49.246;9.106;2023-10-09T09:47:13;20.90;99.90
19586;DHT22;9939;49.246;9.106;2023-10-09T09:49:43;20.90;99.90
19586;DHT22;9939;49.246;9.106;2023-10-09T09:52:10;21.10;99.90
19586;DHT22;9939;49.246;9.106;2023-10-09T09:54:38;20.70;99.90
19586;DHT22;9939;49.246;9.106;2023-10-09T09:57:06;20.50;99.90
19586;DHT22;9939;49.246;9.106;2023-10-09T09:59:38;20.40;99.90
19586;DHT22;9939;49.246;9.106;2023-10-09T10:02:18;20.30;99.90
19586;DHT22;9939;49.246;9.106;2023-10-09T10:04:48;20.40;99.90
19586;DHT22;9939;49.246;9.106;2023-10-09T10:07:16;20.10;99.90
19586;DHT22;9939;49.246;9.106;2023-10-09T10:09:47;20.20;99.90
19586;DHT22;9939;49.246;9.106;2023-10-09T10:15:08;20.40;99.90
19586;DHT22;9939;49.246;9.106;2023-10-09T10:20:26;20.20;99.90
19586;DHT22;9939;49.246;9.106;2023-10-09T10:23:14;20.20;99.90
19586;DHT22;9939;49.246;9.106;2023-10-09T10:25:43;20.40;99.90
19586;DHT22;9939;49.246;9.106;2023-10-09T10:28:19;20.50;99.90
19586;DHT22;9939;49.246;9.106;2023-10-09T10:31:05;20.50;99.90
19586;DHT22;9939;49.246;9.106;2023-10-09T10:36:22;20.60;99.90
19586;DHT22;9939;49.246;9.106;2023-10-09T10:39:02;20.50;99.90
19586;DHT22;9939;49.246;9.106;2023-10-09T10:41:32;20.50;99.90
19586;DHT22;9939;49.246;9.106;2023-10-09T10:44:04;19.60;99.90
19586;DHT22;9939;49.246;9.106;2023-10-09T10:46:49;19.10;99.90
19586;DHT22;9939;49.246;9.106;2023-10-09T10:49:19;18.90;99.90
19586;DHT22;9939;49.246;9.106;2023-10-09T10:51:50;18.60;99.90
19586;DHT22;9939;49.246;9.106;2023-10-09T10:54:44;18.30;99.90
19586;DHT22;9939;49.246;9.106;2023-10-09T10:57:14;18.40;99.90
19586;DHT22;9939;49.246;9.106;2023-10-09T10:59:46;18.00;99.90
19586;DHT22;9939;49.246;9.106;2023-10-09T11:02:16;18.20;99.90
19586;DHT22;9939;49.246;9.106;2023-10-09T11:04:45;18.40;99.90
19586;DHT22;9939;49.246;9.106;2023-10-09T11:07:14;18.70;99.90
19586;DHT22;9939;49.246;9.106;2023-10-09T11:09:54;18.90;99.90
19586;DHT22;9939;49.246;9.106;2023-10-09T11:15:31;19.60;99.90
19586;DHT22;9939;49.246;9.106;2023-10-09T11:18:11;19.90;99.90
19586;DHT22;9939;49.246;9.106;2023-10-09T11:20:53;20.30;99.90
19586;DHT22;9939;49.246;9.106;2023-10-09T11:23:43;20.60;99.90
19586;DHT22;9939;49.246;9.106;2023-10-09T11:26:19;20.90;99.90
19586;DHT22;9939;49.246;9.106;2023-10-09T11:29:12;21.10;99.90
19586;DHT22;9939;49.246;9.106;2023-10-09T11:31:42;21.30;99.90
19586;DHT22;9939;49.246;9.106;2023-10-09T11:34:24;21.40;99.90
19586;DHT22;9939;49.246;9.106;2023-10-09T11:36:59;21.60;99.90
19586;DHT22;9939;49.246;9.106;2023-10-09T11:39:27;22.00;99.90
19586;DHT22;9939;49.246;9.106;2023-10-09T11:42:04;22.40;99.90
19586;DHT22;9939;49.246;9.106;2023-10-09T11:44:35;22.90;99.90
19586;DHT22;9939;49.246;9.106;2023-10-09T11:47:06;23.20;99.90
19586;DHT22;9939;49.246;9.106;2023-10-09T11:49:52;23.60;99.90
19586;DHT22;9939;49.246;9.106;2023-10-09T11:52:28;23.90;99.90
19586;DHT22;9939;49.246;9.106;2023-10-09T11:54:58;24.40;99.90
19586;DHT22;9939;49.246;9.106;2023-10-09T11:57:25;24.20;99.90
19586;DHT22;9939;49.246;9.106;2023-10-09T11:59:57;23.50;99.90
19586;DHT22;9939;49.246;9.106;2023-10-09T12:02:25;23.40;99.90
19586;DHT22;9939;49.246;9.106;2023-10-09T12:04:53;23.50;99.90
19586;DHT22;9939;49.246;9.106;2023-10-09T12:07:25;23.50;99.90
19586;DHT22;9939;49.246;9.106;2023-10-09T12:09:52;23.80;99.90
19586;DHT22;9939;49.246;9.106;2023-10-09T12:12:22;24.70;99.90
19586;DHT22;9939;49.246;9.106;2023-10-09T12:14:53;25.50;99.90
19586;DHT22;9939;49.246;9.106;2023-10-09T12:17:20;25.60;99.90
19586;DHT22;9939;49.246;9.106;2023-10-09T12:19:51;25.70;99.90
19586;DHT22;9939;49.246;9.106;2023-10-09T12:22:18;25.40;99.90
19586;DHT22;9939;49.246;9.106;2023-10-09T12:24:47;25.30;99.90
19586;DHT22;9939;49.246;9.106;2023-10-09T12:27:14;25.50;99.90
19586;DHT22;9939;49.246;9.106;2023-10-09T12:29:46;25.30;99.90
19586;DHT22;9939;49.246;9.106;2023-10-09T12:32:16;25.00;99.90
19586;DHT22;9939;49.246;9.106;2023-10-09T12:34:47;24.60;99.90
19586;DHT22;9939;49.246;9.106;2023-10-09T12:37:17;24.50;99.90
19586;DHT22;9939;49.246;9.106;2023-10-09T12:39:47;24.60;99.90
19586;DHT22;9939;49.246;9.106;2023-10-09T12:42:14;25.00;99.90
19586;DHT22;9939;49.246;9.106;2023-10-09T12:44:43;25.50;99.90
19586;DHT22;9939;49.246;9.106;2023-10-09T12:47:11;26.40;99.90
19586;DHT22;9939;49.246;9.106;2023-10-09T12:49:38;27.10;99.90
19586;DHT22;9939;49.246;9.106;2023-10-09T12:52:08;27.30;99.90
19586;DHT22;9939;49.246;9.106;2023-10-09T12:54:43;27.20;99.90
19586;DHT22;9939;49.246;9.106;2023-10-09T12:57:13;27.30;99.90
19586;DHT22;9939;49.246;9.106;2023-10-09T12:59:42;28.10;99.90
19586;DHT22;9939;49.246;9.106;2023-10-09T13:02:15;29.00;99.90
19586;DHT22;9939;49.246;9.106;2023-10-09T13:04:57;29.20;99.90
19586;DHT22;9939;49.246;9.106;2023-10-09T13:07:26;29.90;99.90
19586;DHT22;9939;49.246;9.106;2023-10-09T13:09:52;30.80;99.90
19586;DHT22;9939;49.246;9.106;2023-10-09T13:12:40;32.50;98.70
19586;DHT22;9939;49.246;9.106;2023-10-09T13:15:10;32.50;97.00
19586;DHT22;9939;49.246;9.106;2023-10-09T13:17:37;33.30;95.20
19586;DHT22;9939;49.246;9.106;2023-10-09T13:20:05;33.10;94.80
19586;DHT22;9939;49.246;9.106;2023-10-09T13:22:42;31.70;95.30
19586;DHT22;9939;49.246;9.106;2023-10-09T13:25:10;31.10;95.90
19586;DHT22;9939;49.246;9.106;2023-10-09T13:28:01;31.20;95.40
19586;DHT22;9939;49.246;9.106;2023-10-09T13:30:30;31.40;94.00
19586;DHT22;9939;49.246;9.106;2023-10-09T13:33:05;31.50;93.20
19586;DHT22;9939;49.246;9.106;2023-10-09T13:35:32;32.60;91.40
19586;DHT22;9939;49.246;9.106;2023-10-09T13:38:04;33.10;90.70
19586;DHT22;9939;49.246;9.106;2023-10-09T13:40:36;33.90;88.80
19586;DHT22;9939;49.246;9.106;2023-10-09T13:43:04;34.40;86.60
19586;DHT22;9939;49.246;9.106;2023-10-09T13:45:37;33.60;87.70
19586;DHT22;9939;49.246;9.106;2023-10-09T13:48:04;33.70;87.10
19586;DHT22;9939;49.246;9.106;2023-10-09T13:50:31;33.40;85.70
19586;DHT22;9939;49.246;9.106;2023-10-09T13:53:04;32.70;84.30
19586;DHT22;9939;49.246;9.106;2023-10-09T13:55:37;30.90;86.50
19586;DHT22;9939;49.246;9.106;2023-10-09T13:58:10;30.90;86.80
19586;DHT22;9939;49.246;9.106;2023-10-09T14:00:47;31.40;86.80
19586;DHT22;9939;49.246;9.106;2023-10-09T14:03:16;31.40;86.80
19586;DHT22;9939;49.246;9.106;2023-10-09T14:05:46;30.40;87.40
19586;DHT22;9939;49.246;9.106;2023-10-09T14:08:21;30.20;87.70
19586;DHT22;9939;49.246;9.106;2023-10-09T14:10:52;30.00;90.00
19586;DHT22;9939;49.246;9.106;2023-10-09T14:13:21;30.10;90.00
19586;DHT22;9939;49.246;9.106;2023-10-09T14:15:56;29.80;90.20
19586;DHT22;9939;49.246;9.106;2023-10-09T14:18:24;29.10;90.20
19586;DHT22;9939;49.246;9.106;2023-10-09T14:20:51;29.40;90.60
19586;DHT22;9939;49.246;9.106;2023-10-09T14:23:22;29.60;90.70
19586;DHT22;9939;49.246;9.106;2023-10-09T14:25:51;29.60;90.60
19586;DHT22;9939;49.246;9.106;2023-10-09T14:28:22;29.40;91.00
19586;DHT22;9939;49.246;9.106;2023-10-09T14:30:54;29.30;91.30
19586;DHT22;9939;49.246;9.106;2023-10-09T14:33:26;29.20;91.40
19586;DHT22;9939;49.246;9.106;2023-10-09T14:35:54;29.10;91.40
19586;DHT22;9939;49.246;9.106;2023-10-09T14:38:21;28.80;91.80
19586;DHT22;9939;49.246;9.106;2023-10-09T14:40:53;28.80;92.00
19586;DHT22;9939;49.246;9.106;2023-10-09T14:43:26;29.10;91.70
19586;DHT22;9939;49.246;9.106;2023-10-09T14:45:54;28.40;91.60
19586;DHT22;9939;49.246;9.106;2023-10-09T14:48:22;27.90;92.20
19586;DHT22;9939;49.246;9.106;2023-10-09T14:50:55;27.50;92.80
19586;DHT22;9939;49.246;9.106;2023-10-09T14:53:31;26.80;93.20
19586;DHT22;9939;49.246;9.106;2023-10-09T14:55:59;26.60;94.00
19586;DHT22;9939;49.246;9.106;2023-10-09T14:58:27;26.20;95.20
19586;DHT22;9939;49.246;9.106;2023-10-09T15:00:56;26.30;95.00
19586;DHT22;9939;49.246;9.106;2023-10-09T15:03:23;26.10;94.80
19586;DHT22;9939;49.246;9.106;2023-10-09T15:05:50;26.10;95.10
19586;DHT22;9939;49.246;9.106;2023-10-09T15:08:17;26.20;95.40
19586;DHT22;9939;49.246;9.106;2023-10-09T15:10:48;26.30;95.90
19586;DHT22;9939;49.246;9.106;2023-10-09T15:13:15;26.10;96.30
19586;DHT22;9939;49.246;9.106;2023-10-09T15:15:44;26.10;96.30
19586;DHT22;9939;49.246;9.106;2023-10-09T15:18:11;25.90;96.80
19586;DHT22;9939;49.246;9.106;2023-10-09T15:20:39;26.20;96.80
19586;DHT22;9939;49.246;9.106;2023-10-09T15:23:07;26.50;96.60
19586;DHT22;9939;49.246;9.106;2023-10-09T15:25:34;26.30;96.40
19586;DHT22;9939;49.246;9.106;2023-10-09T15:28:01;26.30;96.70
19586;DHT22;9939;49.246;9.106;2023-10-09T15:30:29;26.20;96.80
19586;DHT22;9939;49.246;9.106;2023-10-09T15:32:57;26.10;96.70
19586;DHT22;9939;49.246;9.106;2023-10-09T15:35:27;26.10;96.60
19586;DHT22;9939;49.246;9.106;2023-10-09T15:37:55;25.90;96.70
19586;DHT22;9939;49.246;9.106;2023-10-09T15:40:21;25.70;97.50
19586;DHT22;9939;49.246;9.106;2023-10-09T15:42:50;25.40;97.80
19586;DHT22;9939;49.246;9.106;2023-10-09T15:45:19;25.00;98.40
19586;DHT22;9939;49.246;9.106;2023-10-09T15:47:48;24.80;98.70
19586;DHT22;9939;49.246;9.106;2023-10-09T15:50:17;24.60;99.30
19586;DHT22;9939;49.246;9.106;2023-10-09T15:52:45;24.30;99.90
19586;DHT22;9939;49.246;9.106;2023-10-09T15:55:15;24.00;99.90
19586;DHT22;9939;49.246;9.106;2023-10-09T15:57:47;23.80;99.90
19586;DHT22;9939;49.246;9.106;2023-10-09T16:00:19;23.50;99.90
19586;DHT22;9939;49.246;9.106;2023-10-09T16:02:48;23.50;99.90
19586;DHT22;9939;49.246;9.106;2023-10-09T16:05:17;23.50;99.90
19586;DHT22;9939;49.246;9.106;2023-10-09T16:07:44;23.30;99.90
19586;DHT22;9939;49.246;9.106;2023-10-09T16:10:11;23.20;99.90
19586;DHT22;9939;49.246;9.106;2023-10-09T16:12:39;22.90;99.90
19586;DHT22;9939;49.246;9.106;2023-10-09T16:15:06;22.90;99.90
19586;DHT22;9939;49.246;9.106;2023-10-09T16:17:33;22.70;99.90
19586;DHT22;9939;49.246;9.106;2023-10-09T16:20:03;22.60;99.90
19586;DHT22;9939;49.246;9.106;2023-10-09T16:22:32;22.30;99.90
19586;DHT22;9939;49.246;9.106;2023-10-09T16:24:59;22.20;99.90
19586;DHT22;9939;49.246;9.106;2023-10-09T16:27:26;22.10;99.90
19586;DHT22;9939;49.246;9.106;2023-10-09T16:29:54;22.10;99.90
19586;DHT22;9939;49.246;9.106;2023-10-09T16:32:21;22.00;99.90
19586;DHT22;9939;49.246;9.106;2023-10-09T16:34:48;22.00;99.90
19586;DHT22;9939;49.246;9.106;2023-10-09T16:37:16;21.90;99.90